Island of Crete, Greece
Current Conditions -  °F | °C
As of 6:20 AM on Tuesday 27 Jan 2015 (Local Time) from LGIR Reporting Station
Light Rain Light Rain  
Wind Chill: 52°   Ceiling: 2000
Heat Index: 52°   Visibility: 6mi
Dew Point: 46°   Wind: 10mph
Humidity: 82%   Direction: 210°SSW
Pressure: 29.97"   Gusts: NA
Location:  35.33°N, 25.18°E
Report Text: LGIR 270320Z 21009KT 9999 -RA BKN020 11/08 Q1015 NOSIG
Loading
Personal Weather Stations






























Interactive Weather Map New forecast layout! Learn more

10-Day Weather Forecast

Advertisements
Track Severe Weather on mobile